Time;durP1;ratioP1;P1;durP2;ratioP2;P2;SDS_P1;SDS_P2;PMS_P1;PMS_P2;Temp;Humidity;BMP_temperature;BMP_pressure;BME280_temperature;BME280_humidity;BME280_pressure;Samples;Min_cycle;Max_cycle;Signal;HPM_P1;HPM_P2
2022/12/11 00:02:03;;;;;;;;;;;7.40;59.30;;;;;;5020671;28;20757;-89
2022/12/11 00:04:29;;;;;;;;;;;7.40;59.30;;;;;;5017562;28;19926;-88
2022/12/11 00:06:55;;;;;;;;;;;7.30;59.20;;;;;;5015006;28;19987;-87
2022/12/11 00:09:20;;;;;;;;;;;7.30;59.00;;;;;;5020897;28;19920;-88
2022/12/11 00:11:46;;;;;;;;;;;7.30;58.90;;;;;;5018190;28;19932;-87
2022/12/11 00:14:12;;;;;;;;;;;7.30;59.20;;;;;;5020507;28;19982;-87
2022/12/11 00:16:37;;;;;;;;;;;7.30;59.20;;;;;;5019543;28;20015;-88
2022/12/11 00:19:06;;;;;;;;;;;7.30;59.00;;;;;;5014516;28;20394;-87
2022/12/11 00:21:32;;;;;;;;;;;7.30;59.00;;;;;;5019160;28;19992;-88
2022/12/11 00:23:57;;;;;;;;;;;7.30;58.90;;;;;;5016352;28;19932;-87
2022/12/11 00:26:23;;;;;;;;;;;7.20;59.00;;;;;;5016254;28;19925;-87
2022/12/11 00:28:51;;;;;;;;;;;7.30;59.20;;;;;;5026369;28;20015;-87
2022/12/11 00:31:17;;;;;;;;;;;7.30;59.30;;;;;;5017046;28;20373;-87
2022/12/11 00:33:43;;;;;;;;;;;7.30;59.10;;;;;;5016063;28;19917;-88
2022/12/11 00:36:27;;;;;;;;;;;7.20;59.10;;;;;;5015048;28;19929;-88
2022/12/11 00:38:53;;;;;;;;;;;7.20;58.90;;;;;;5016534;28;19917;-88
2022/12/11 00:41:22;;;;;;;;;;;7.30;59.20;;;;;;5020801;28;19921;-88
2022/12/11 00:43:47;;;;;;;;;;;7.20;59.10;;;;;;5015773;28;20434;-87
2022/12/11 00:46:13;;;;;;;;;;;7.30;59.10;;;;;;5014851;28;19972;-88
2022/12/11 00:48:38;;;;;;;;;;;7.20;58.80;;;;;;5017610;28;19921;-87
2022/12/11 00:51:04;;;;;;;;;;;7.20;59.00;;;;;;5019211;28;19920;-87
2022/12/11 00:53:32;;;;;;;;;;;7.20;59.20;;;;;;5015339;28;20407;-88
2022/12/11 00:55:57;;;;;;;;;;;7.20;59.50;;;;;;5019923;28;19929;-87
2022/12/11 00:58:23;;;;;;;;;;;7.30;59.10;;;;;;5016337;28;20404;-88
2022/12/11 01:00:48;;;;;;;;;;;7.30;59.10;;;;;;5020523;28;20211;-88
2022/12/11 01:03:14;;;;;;;;;;;7.30;59.30;;;;;;5024024;28;19917;-89
2022/12/11 01:05:40;;;;;;;;;;;7.30;59.20;;;;;;5021284;28;19944;-89
2022/12/11 01:08:06;;;;;;;;;;;7.30;59.50;;;;;;5021036;28;19949;-88
2022/12/11 01:10:32;;;;;;;;;;;7.40;59.60;;;;;;5019941;28;19917;-89
2022/12/11 01:13:01;;;;;;;;;;;7.40;59.60;;;;;;5022604;28;19955;-88
2022/12/11 01:15:28;;;;;;;;;;;7.50;59.10;;;;;;5020419;28;20012;-89
2022/12/11 01:17:53;;;;;;;;;;;7.40;59.20;;;;;;5029997;28;19920;-89
2022/12/11 01:20:20;;;;;;;;;;;7.40;59.10;;;;;;5030516;28;19971;-88
2022/12/11 01:22:45;;;;;;;;;;;7.40;59.00;;;;;;5031695;28;19913;-89
2022/12/11 01:25:11;;;;;;;;;;;7.40;59.20;;;;;;5010656;28;19917;-89
2022/12/11 01:27:37;;;;;;;;;;;7.40;59.30;;;;;;5012668;28;19940;-89
2022/12/11 01:30:04;;;;;;;;;;;7.40;58.90;;;;;;5024456;28;19917;-89
2022/12/11 01:32:29;;;;;;;;;;;7.30;58.80;;;;;;5012095;28;20407;-89
2022/12/11 01:34:55;;;;;;;;;;;7.30;58.80;;;;;;5022408;28;19955;-88
2022/12/11 01:37:20;;;;;;;;;;;7.30;59.00;;;;;;5030787;28;20016;-89
2022/12/11 01:39:46;;;;;;;;;;;7.30;59.40;;;;;;5028878;28;19924;-87
2022/12/11 01:42:18;;;;;;;;;;;7.30;59.50;;;;;;5030798;28;19917;-88
2022/12/11 01:44:43;;;;;;;;;;;7.40;59.50;;;;;;5030644;28;19917;-87
2022/12/11 01:47:09;;;;;;;;;;;7.40;59.10;;;;;;5030637;28;19913;-87
2022/12/11 01:49:35;;;;;;;;;;;7.40;59.10;;;;;;5029142;28;20421;-88
2022/12/11 01:52:01;;;;;;;;;;;7.40;59.20;;;;;;5028715;28;20327;-88
2022/12/11 01:54:27;;;;;;;;;;;7.40;59.30;;;;;;5031622;28;20252;-88
2022/12/11 01:56:54;;;;;;;;;;;7.40;59.10;;;;;;5026480;28;19925;-87
2022/12/11 01:59:21;;;;;;;;;;;7.40;59.20;;;;;;5027197;28;19944;-87
2022/12/11 02:02:02;;;;;;;;;;;7.40;59.10;;;;;;5029707;28;20360;-87
2022/12/11 02:04:28;;;;;;;;;;;7.40;58.90;;;;;;5019454;28;19914;-87
2022/12/11 02:06:53;;;;;;;;;;;7.40;58.80;;;;;;5010358;28;19914;-87
2022/12/11 02:09:21;;;;;;;;;;;7.30;59.10;;;;;;5026524;28;19909;-88
2022/12/11 02:11:49;;;;;;;;;;;7.30;59.10;;;;;;5028401;28;19928;-87
2022/12/11 02:14:31;;;;;;;;;;;7.30;59.10;;;;;;5030054;28;19920;-88
2022/12/11 02:17:10;;;;;;;;;;;7.40;59.20;;;;;;5028075;28;19972;-88
2022/12/11 02:19:48;;;;;;;;;;;7.40;59.40;;;;;;5032848;28;19921;-89
2022/12/11 02:22:37;;;;;;;;;;;7.40;59.50;;;;;;5030742;28;19913;-87
2022/12/11 02:25:05;;;;;;;;;;;7.50;59.60;;;;;;5021763;28;19952;-87
2022/12/11 02:27:35;;;;;;;;;;;7.50;59.50;;;;;;5029764;28;20341;-88
2022/12/11 02:30:05;;;;;;;;;;;7.50;59.40;;;;;;5028533;28;19967;-88
2022/12/11 02:32:34;;;;;;;;;;;7.50;59.20;;;;;;5028688;28;19974;-87
2022/12/11 02:35:08;;;;;;;;;;;7.50;59.30;;;;;;5028520;28;20423;-88
2022/12/11 02:37:36;;;;;;;;;;;7.60;59.40;;;;;;5030475;28;19925;-87
2022/12/11 02:40:04;;;;;;;;;;;7.60;59.40;;;;;;5026103;28;19917;-89
2022/12/11 02:42:31;;;;;;;;;;;7.60;59.40;;;;;;5024693;28;20334;-89
2022/12/11 02:44:57;;;;;;;;;;;7.60;59.50;;;;;;5031927;28;19928;-88
2022/12/11 02:47:24;;;;;;;;;;;7.70;59.40;;;;;;5020781;28;20651;-89
2022/12/11 02:49:50;;;;;;;;;;;7.70;59.20;;;;;;5014256;28;19940;-88
2022/12/11 02:52:18;;;;;;;;;;;7.60;59.40;;;;;;5031314;28;19917;-89
2022/12/11 02:54:43;;;;;;;;;;;7.70;59.40;;;;;;5041188;28;19920;-88
2022/12/11 02:57:19;;;;;;;;;;;7.70;59.20;;;;;;5053733;28;19927;-87
2022/12/11 02:59:45;;;;;;;;;;;7.60;59.20;;;;;;5052833;28;19940;-88
2022/12/11 03:02:14;;;;;;;;;;;7.60;59.40;;;;;;5031394;28;19913;-88
2022/12/11 03:04:40;;;;;;;;;;;7.70;59.30;;;;;;5032778;28;19995;-88
2022/12/11 03:07:12;;;;;;;;;;;7.70;59.30;;;;;;5033016;28;19964;-88
2022/12/11 03:09:38;;;;;;;;;;;7.70;59.30;;;;;;5034326;28;19917;-88
2022/12/11 03:12:05;;;;;;;;;;;7.60;59.10;;;;;;5033592;28;19921;-87
2022/12/11 03:14:30;;;;;;;;;;;7.60;59.30;;;;;;5031732;28;20425;-88
2022/12/11 03:17:04;;;;;;;;;;;7.60;59.50;;;;;;5031347;28;19929;-87
2022/12/11 03:19:40;;;;;;;;;;;7.60;59.30;;;;;;5031725;28;20275;-88
2022/12/11 03:22:09;;;;;;;;;;;7.60;59.10;;;;;;5033210;28;19928;-87
2022/12/11 03:24:44;;;;;;;;;;;7.60;59.10;;;;;;5032954;28;19951;-88
2022/12/11 03:27:25;;;;;;;;;;;7.60;59.30;;;;;;5032805;28;20372;-88
2022/12/11 03:29:54;;;;;;;;;;;7.60;59.30;;;;;;5033292;28;19916;-88
2022/12/11 03:32:22;;;;;;;;;;;7.60;59.20;;;;;;5031299;28;19913;-89
2022/12/11 03:34:47;;;;;;;;;;;7.60;59.10;;;;;;5032952;28;19944;-87
2022/12/11 03:37:14;;;;;;;;;;;7.60;59.10;;;;;;5032261;28;19921;-87
2022/12/11 03:39:42;;;;;;;;;;;7.60;59.10;;;;;;5031015;28;20249;-88
2022/12/11 03:42:10;;;;;;;;;;;7.50;59.00;;;;;;5032105;28;19921;-87
2022/12/11 03:44:36;;;;;;;;;;;7.50;59.00;;;;;;5030629;28;20399;-87
2022/12/11 03:47:03;;;;;;;;;;;7.50;59.20;;;;;;5031196;28;20326;-88
2022/12/11 03:49:31;;;;;;;;;;;7.50;59.10;;;;;;5022324;28;20364;-89
2022/12/11 03:51:58;;;;;;;;;;;7.50;59.10;;;;;;5031466;28;19918;-87
2022/12/11 03:54:24;;;;;;;;;;;7.40;59.00;;;;;;5031027;28;20406;-87
2022/12/11 03:56:51;;;;;;;;;;;7.40;59.00;;;;;;5032514;28;20008;-89
2022/12/11 03:59:16;;;;;;;;;;;7.40;59.20;;;;;;5029759;28;19913;-88
2022/12/11 04:01:42;;;;;;;;;;;7.40;59.10;;;;;;5029967;28;19924;-87
2022/12/11 04:04:07;;;;;;;;;;;7.40;59.00;;;;;;5031454;28;19917;-87
2022/12/11 04:06:33;;;;;;;;;;;7.40;58.90;;;;;;5024080;28;19963;-87
2022/12/11 04:08:58;;;;;;;;;;;7.30;59.20;;;;;;5030045;28;20406;-89
2022/12/11 04:11:36;;;;;;;;;;;7.40;59.40;;;;;;5033312;28;19917;-88
2022/12/11 04:16:51;;;;;;;;;;;7.30;59.40;;;;;;5027655;28;19936;-89
2022/12/11 04:24:46;;;;;;;;;;;7.20;59.80;;;;;;5031155;28;19920;-88
2022/12/11 04:27:12;;;;;;;;;;;7.20;59.60;;;;;;5028021;28;19948;-87
2022/12/11 04:29:37;;;;;;;;;;;7.20;59.30;;;;;;5031105;28;20579;-87
2022/12/11 04:32:03;;;;;;;;;;;7.20;59.40;;;;;;5029063;28;19917;-87
2022/12/11 04:34:28;;;;;;;;;;;7.20;59.50;;;;;;5029733;28;19929;-87
2022/12/11 04:36:54;;;;;;;;;;;7.20;59.40;;;;;;5029175;28;20024;-88
2022/12/11 04:39:19;;;;;;;;;;;7.30;59.30;;;;;;5031300;28;19925;-88
2022/12/11 04:41:45;;;;;;;;;;;7.30;59.50;;;;;;5029136;28;19928;-88
2022/12/11 04:44:10;;;;;;;;;;;7.30;59.40;;;;;;5029477;28;19940;-89
2022/12/11 04:46:36;;;;;;;;;;;7.30;59.40;;;;;;5011480;28;20165;-87
2022/12/11 04:49:01;;;;;;;;;;;7.30;59.50;;;;;;5017935;28;19913;-88
2022/12/11 04:51:27;;;;;;;;;;;7.30;59.50;;;;;;5032602;28;19960;-87
2022/12/11 04:53:53;;;;;;;;;;;7.30;59.50;;;;;;5030401;28;19913;-88
2022/12/11 04:56:19;;;;;;;;;;;7.40;59.60;;;;;;5037716;28;19925;-88
2022/12/11 04:58:45;;;;;;;;;;;7.40;59.50;;;;;;5027419;28;19913;-88
2022/12/11 05:01:15;;;;;;;;;;;7.40;59.40;;;;;;5037128;28;19917;-88
2022/12/11 05:03:40;;;;;;;;;;;7.40;59.20;;;;;;5029560;28;19928;-87
2022/12/11 05:06:06;;;;;;;;;;;7.30;59.40;;;;;;5029739;28;19921;-88
2022/12/11 05:08:33;;;;;;;;;;;7.40;59.60;;;;;;5017212;28;19960;-88
2022/12/11 05:11:00;;;;;;;;;;;7.40;59.60;;;;;;5029259;28;19929;-88
2022/12/11 05:13:26;;;;;;;;;;;7.40;59.70;;;;;;5029837;28;19928;-89
2022/12/11 05:15:52;;;;;;;;;;;7.40;59.70;;;;;;5030108;28;20016;-87
2022/12/11 05:18:17;;;;;;;;;;;7.50;59.60;;;;;;5028648;28;20000;-88
2022/12/11 05:20:43;;;;;;;;;;;7.50;59.50;;;;;;5029715;28;19917;-88
2022/12/11 05:23:08;;;;;;;;;;;7.50;59.60;;;;;;5025521;28;19921;-88
2022/12/11 05:25:34;;;;;;;;;;;7.50;59.70;;;;;;5029908;28;19924;-86
2022/12/11 05:27:59;;;;;;;;;;;7.50;59.70;;;;;;5016090;28;19989;-87
2022/12/11 05:30:25;;;;;;;;;;;7.60;59.80;;;;;;5012850;28;19921;-88
2022/12/11 05:32:50;;;;;;;;;;;7.60;59.70;;;;;;5015751;28;19913;-87
2022/12/11 05:35:16;;;;;;;;;;;7.60;59.70;;;;;;5022538;28;19917;-87
2022/12/11 05:37:41;;;;;;;;;;;7.60;59.70;;;;;;5028660;28;19925;-88
2022/12/11 05:40:11;;;;;;;;;;;7.70;59.60;;;;;;5023679;28;21254;-88
2022/12/11 05:42:40;;;;;;;;;;;7.70;59.50;;;;;;5009028;28;19956;-88
2022/12/11 05:45:05;;;;;;;;;;;7.60;59.60;;;;;;5023098;28;20314;-88
2022/12/11 05:47:31;;;;;;;;;;;7.60;59.50;;;;;;5028277;28;19974;-87
2022/12/11 05:49:56;;;;;;;;;;;7.60;59.20;;;;;;5023371;28;19909;-88
2022/12/11 05:52:22;;;;;;;;;;;7.70;59.10;;;;;;5028294;28;19949;-88
2022/12/11 05:54:48;;;;;;;;;;;7.70;59.00;;;;;;5026890;28;20004;-88
2022/12/11 05:57:14;;;;;;;;;;;7.60;59.00;;;;;;5027285;28;19964;-88
2022/12/11 05:59:39;;;;;;;;;;;7.70;59.10;;;;;;5019740;28;19913;-88
2022/12/11 06:02:05;;;;;;;;;;;7.70;59.00;;;;;;5018912;28;19925;-88
2022/12/11 06:04:30;;;;;;;;;;;7.70;59.00;;;;;;5018946;28;19951;-88
2022/12/11 06:06:56;;;;;;;;;;;7.70;59.10;;;;;;5018554;28;19917;-88
2022/12/11 06:09:21;;;;;;;;;;;7.70;59.00;;;;;;5028509;28;19968;-87
2022/12/11 06:11:47;;;;;;;;;;;7.70;59.00;;;;;;5027328;28;19917;-87
2022/12/11 06:14:13;;;;;;;;;;;7.70;59.10;;;;;;5029353;28;20016;-88
2022/12/11 06:16:38;;;;;;;;;;;7.70;59.10;;;;;;5027714;28;19973;-87
2022/12/11 06:19:04;;;;;;;;;;;7.80;59.10;;;;;;5029435;28;19960;-88
2022/12/11 06:21:30;;;;;;;;;;;7.80;59.00;;;;;;5030664;28;19967;-87
2022/12/11 06:23:56;;;;;;;;;;;7.80;59.00;;;;;;5039969;28;19975;-88
2022/12/11 06:26:22;;;;;;;;;;;7.80;59.00;;;;;;5029160;28;19971;-88
2022/12/11 06:28:48;;;;;;;;;;;7.80;59.00;;;;;;5030885;28;19917;-88
2022/12/11 06:31:13;;;;;;;;;;;7.80;58.90;;;;;;5028857;28;20415;-88
2022/12/11 06:33:39;;;;;;;;;;;7.80;59.00;;;;;;5029414;28;19917;-89
2022/12/11 06:36:06;;;;;;;;;;;7.80;59.00;;;;;;5027822;28;20033;-89
2022/12/11 06:38:32;;;;;;;;;;;7.80;58.90;;;;;;5028043;28;20447;-88
2022/12/11 06:40:58;;;;;;;;;;;7.80;58.80;;;;;;5027881;28;20016;-87
2022/12/11 06:43:24;;;;;;;;;;;7.70;58.80;;;;;;5027641;28;20483;-88
2022/12/11 06:45:50;;;;;;;;;;;7.70;58.90;;;;;;5028962;28;19920;-88
2022/12/11 06:48:15;;;;;;;;;;;7.70;58.90;;;;;;5028084;28;19917;-87
2022/12/11 06:50:43;;;;;;;;;;;7.70;59.00;;;;;;5027845;28;19917;-87
2022/12/11 06:53:13;;;;;;;;;;;7.70;59.10;;;;;;5028265;28;19956;-87
2022/12/11 06:55:39;;;;;;;;;;;7.60;59.10;;;;;;5030462;28;19919;-87
2022/12/11 06:58:04;;;;;;;;;;;7.70;59.00;;;;;;5028303;28;19921;-87
2022/12/11 07:00:30;;;;;;;;;;;7.60;59.00;;;;;;5028833;28;19928;-88
2022/12/11 07:02:55;;;;;;;;;;;7.60;59.00;;;;;;5027167;28;20050;-88
2022/12/11 07:05:21;;;;;;;;;;;7.60;58.90;;;;;;5028271;28;19970;-88
2022/12/11 07:07:46;;;;;;;;;;;7.60;58.90;;;;;;5028834;28;19963;-87
2022/12/11 07:10:12;;;;;;;;;;;7.60;58.90;;;;;;5027714;28;19940;-88
2022/12/11 07:12:38;;;;;;;;;;;7.60;59.00;;;;;;5028364;28;19922;-87
2022/12/11 07:15:04;;;;;;;;;;;7.60;59.10;;;;;;5028254;28;20364;-88
2022/12/11 07:17:30;;;;;;;;;;;7.60;59.10;;;;;;5019232;28;19959;-88
2022/12/11 07:19:55;;;;;;;;;;;7.70;59.10;;;;;;5028537;28;20591;-88
2022/12/11 07:22:21;;;;;;;;;;;7.70;59.10;;;;;;5028029;28;19917;-88
2022/12/11 07:24:46;;;;;;;;;;;7.70;59.00;;;;;;5033380;28;19936;-87
2022/12/11 07:27:12;;;;;;;;;;;7.70;59.00;;;;;;5031794;28;19954;-88
2022/12/11 07:29:37;;;;;;;;;;;7.70;58.90;;;;;;5031880;28;20000;-87
2022/12/11 07:32:03;;;;;;;;;;;7.70;58.70;;;;;;5032304;28;20257;-87
2022/12/11 07:34:31;;;;;;;;;;;7.60;58.50;;;;;;5031837;28;19924;-88
2022/12/11 07:36:57;;;;;;;;;;;7.60;58.60;;;;;;5032097;28;20447;-88
2022/12/11 07:39:22;;;;;;;;;;;7.60;58.80;;;;;;5030296;28;19917;-89
2022/12/11 07:41:48;;;;;;;;;;;7.60;58.60;;;;;;5030655;28;19913;-89
2022/12/11 07:44:13;;;;;;;;;;;7.60;58.60;;;;;;5029739;28;20388;-88
2022/12/11 07:46:39;;;;;;;;;;;7.60;58.80;;;;;;5030479;28;20414;-87
2022/12/11 07:49:04;;;;;;;;;;;7.60;58.90;;;;;;5031188;28;19932;-87
2022/12/11 07:51:31;;;;;;;;;;;7.70;58.70;;;;;;5031627;28;19913;-88
2022/12/11 07:53:59;;;;;;;;;;;7.60;58.50;;;;;;5042541;28;19941;-87
2022/12/11 07:56:25;;;;;;;;;;;7.60;58.40;;;;;;5028447;28;19921;-89
2022/12/11 07:58:50;;;;;;;;;;;7.50;58.40;;;;;;5031126;28;20265;-87
2022/12/11 08:01:16;;;;;;;;;;;7.50;58.80;;;;;;5031442;28;19940;-87
2022/12/11 08:03:42;;;;;;;;;;;7.50;58.80;;;;;;5031466;28;19917;-89
2022/12/11 08:06:07;;;;;;;;;;;7.60;59.00;;;;;;5029504;28;19925;-88
2022/12/11 08:08:33;;;;;;;;;;;7.50;59.20;;;;;;5031354;28;19971;-87
2022/12/11 08:11:06;;;;;;;;;;;7.60;59.10;;;;;;5031277;28;20547;-88
2022/12/11 08:13:32;;;;;;;;;;;7.60;58.90;;;;;;5025225;28;20380;-88
2022/12/11 08:15:57;;;;;;;;;;;7.60;58.80;;;;;;5033493;28;19921;-87
2022/12/11 08:18:23;;;;;;;;;;;7.60;58.80;;;;;;5030601;28;20273;-88
2022/12/11 08:20:48;;;;;;;;;;;7.60;58.70;;;;;;5031786;28;19920;-87
2022/12/11 08:23:14;;;;;;;;;;;7.60;58.50;;;;;;5026556;28;19936;-88
2022/12/11 08:25:39;;;;;;;;;;;7.60;58.50;;;;;;5030305;28;19914;-88
2022/12/11 08:28:05;;;;;;;;;;;7.60;58.50;;;;;;5030993;28;19980;-89
2022/12/11 08:30:30;;;;;;;;;;;7.60;58.40;;;;;;5020117;28;19994;-88
2022/12/11 08:32:56;;;;;;;;;;;7.50;58.70;;;;;;5022109;28;20261;-88
2022/12/11 08:35:21;;;;;;;;;;;7.50;58.90;;;;;;5023864;28;19948;-89
2022/12/11 08:37:50;;;;;;;;;;;7.60;58.90;;;;;;5018302;28;20280;-88
2022/12/11 08:40:15;;;;;;;;;;;7.60;59.10;;;;;;5019125;28;19925;-88
2022/12/11 08:42:41;;;;;;;;;;;7.60;59.20;;;;;;5018287;28;19914;-87
2022/12/11 08:45:07;;;;;;;;;;;7.70;59.30;;;;;;5020802;28;19932;-88
2022/12/11 08:47:32;;;;;;;;;;;7.70;59.10;;;;;;5019019;28;19913;-88
2022/12/11 08:49:58;;;;;;;;;;;7.70;58.90;;;;;;5023918;28;19922;-88
2022/12/11 08:52:23;;;;;;;;;;;7.70;58.80;;;;;;5021335;28;19928;-88
2022/12/11 08:54:51;;;;;;;;;;;7.80;58.60;;;;;;5030079;28;20347;-89
2022/12/11 08:57:17;;;;;;;;;;;7.70;58.70;;;;;;5029726;28;19980;-87
2022/12/11 08:59:42;;;;;;;;;;;7.70;58.40;;;;;;5024121;28;20011;-88
2022/12/11 09:02:12;;;;;;;;;;;7.70;58.20;;;;;;5018054;28;20273;-88
2022/12/11 09:04:39;;;;;;;;;;;7.70;58.30;;;;;;5019416;28;19939;-87
2022/12/11 09:07:05;;;;;;;;;;;7.60;58.30;;;;;;5019980;28;19924;-89
2022/12/11 09:09:30;;;;;;;;;;;7.60;58.50;;;;;;5019530;28;19989;-87
2022/12/11 09:11:56;;;;;;;;;;;7.60;58.30;;;;;;5019129;28;20319;-87
2022/12/11 09:14:21;;;;;;;;;;;7.60;58.30;;;;;;5018100;28;20276;-89
2022/12/11 09:16:47;;;;;;;;;;;7.60;58.20;;;;;;5023758;28;19951;-88
2022/12/11 09:19:13;;;;;;;;;;;7.60;58.70;;;;;;5029153;28;19917;-87
2022/12/11 09:21:41;;;;;;;;;;;7.60;58.80;;;;;;5029160;28;20311;-87
2022/12/11 09:24:07;;;;;;;;;;;7.60;58.80;;;;;;5031450;28;20384;-89
2022/12/11 09:26:33;;;;;;;;;;;7.60;59.00;;;;;;5023257;28;20133;-89
2022/12/11 09:29:02;;;;;;;;;;;7.70;59.10;;;;;;5021679;28;20280;-89
2022/12/11 09:31:28;;;;;;;;;;;7.70;58.90;;;;;;5021326;28;19926;-89
2022/12/11 09:33:55;;;;;;;;;;;7.70;58.80;;;;;;5022003;28;19913;-88
2022/12/11 09:36:21;;;;;;;;;;;7.80;58.80;;;;;;5028563;28;19978;-87
2022/12/11 09:38:47;;;;;;;;;;;7.80;58.70;;;;;;5027928;28;19920;-88
2022/12/11 09:41:22;;;;;;;;;;;7.80;58.80;;;;;;5018743;28;19918;-87
2022/12/11 09:44:01;;;;;;;;;;;7.80;58.80;;;;;;5013765;28;20421;-89
2022/12/11 09:46:27;;;;;;;;;;;7.80;58.90;;;;;;5033224;28;19959;-88
2022/12/11 09:48:52;;;;;;;;;;;7.80;58.80;;;;;;5029011;28;19920;-89
2022/12/11 09:51:25;;;;;;;;;;;7.80;58.60;;;;;;5026962;28;19925;-89
2022/12/11 09:53:55;;;;;;;;;;;7.80;58.80;;;;;;5022517;28;20439;-90
2022/12/11 09:56:24;;;;;;;;;;;7.80;59.10;;;;;;5007869;28;20387;-88
2022/12/11 09:58:59;;;;;;;;;;;7.90;59.30;;;;;;5021273;28;19921;-87
2022/12/11 10:01:35;;;;;;;;;;;8.00;59.30;;;;;;5013328;28;19924;-88
2022/12/11 10:04:09;;;;;;;;;;;8.00;59.20;;;;;;5033397;28;19940;-89
2022/12/11 10:06:34;;;;;;;;;;;8.00;59.30;;;;;;5027428;28;19962;-88
2022/12/11 10:09:09;;;;;;;;;;;8.00;59.30;;;;;;5026657;28;19917;-89
2022/12/11 10:11:38;;;;;;;;;;;8.00;59.20;;;;;;5016354;28;19959;-88
2022/12/11 10:14:04;;;;;;;;;;;8.10;59.10;;;;;;5014980;28;20438;-87
2022/12/11 10:16:38;;;;;;;;;;;8.10;59.00;;;;;;5024950;28;19921;-88
2022/12/11 10:19:04;;;;;;;;;;;8.10;59.10;;;;;;5007454;28;19975;-88
2022/12/11 10:21:40;;;;;;;;;;;8.10;59.20;;;;;;5013377;28;19913;-89
2022/12/11 10:24:13;;;;;;;;;;;8.10;59.20;;;;;;5017731;28;19968;-87
2022/12/11 10:26:38;;;;;;;;;;;8.10;59.20;;;;;;5019929;28;19956;-87
2022/12/11 10:29:08;;;;;;;;;;;8.20;59.10;;;;;;5017821;28;20030;-88
2022/12/11 10:31:52;;;;;;;;;;;8.20;58.80;;;;;;5018006;28;19964;-89
2022/12/11 10:34:24;;;;;;;;;;;8.20;58.70;;;;;;5020821;28;20463;-89
2022/12/11 10:36:50;;;;;;;;;;;8.20;58.10;;;;;;5015114;28;19925;-89
2022/12/11 10:39:17;;;;;;;;;;;8.10;58.20;;;;;;5019229;28;19925;-89
2022/12/11 10:41:44;;;;;;;;;;;8.00;58.30;;;;;;5017221;28;20385;-89
2022/12/11 10:44:20;;;;;;;;;;;8.10;58.60;;;;;;5021391;28;19917;-88
2022/12/11 10:46:46;;;;;;;;;;;8.10;58.80;;;;;;5014946;28;19924;-87
2022/12/11 10:49:22;;;;;;;;;;;8.10;59.00;;;;;;5018096;28;19971;-88
2022/12/11 10:51:48;;;;;;;;;;;8.10;59.10;;;;;;5015680;28;19936;-87
2022/12/11 10:54:37;;;;;;;;;;;8.10;59.30;;;;;;5022925;28;20017;-87
2022/12/11 10:57:03;;;;;;;;;;;8.20;59.10;;;;;;5014900;28;19925;-88
2022/12/11 10:59:38;;;;;;;;;;;8.20;59.00;;;;;;5019708;28;19964;-87
2022/12/11 11:02:04;;;;;;;;;;;8.20;59.00;;;;;;5020654;28;20356;-87
2022/12/11 11:04:32;;;;;;;;;;;8.20;59.10;;;;;;5019663;28;19917;-88
2022/12/11 11:07:21;;;;;;;;;;;8.20;59.00;;;;;;5018561;28;20394;-88
2022/12/11 11:09:47;;;;;;;;;;;8.20;59.00;;;;;;5010084;28;19928;-89
2022/12/11 11:12:25;;;;;;;;;;;8.20;58.90;;;;;;5024594;28;20379;-89
2022/12/11 11:15:01;;;;;;;;;;;8.20;59.10;;;;;;5021862;28;19925;-89
2022/12/11 11:17:26;;;;;;;;;;;8.20;59.10;;;;;;5019578;28;20398;-88
2022/12/11 11:20:03;;;;;;;;;;;8.20;59.20;;;;;;5023074;28;20000;-87
2022/12/11 11:22:30;;;;;;;;;;;8.20;59.30;;;;;;5018555;28;19921;-89
2022/12/11 11:24:57;;;;;;;;;;;8.20;59.20;;;;;;5019668;28;20409;-87
2022/12/11 11:27:29;;;;;;;;;;;8.20;59.10;;;;;;5018037;28;20256;-87
2022/12/11 11:29:55;;;;;;;;;;;8.20;59.10;;;;;;5027729;28;19921;-88
2022/12/11 11:32:23;;;;;;;;;;;8.20;59.10;;;;;;5020862;28;20494;-89
2022/12/11 11:34:48;;;;;;;;;;;8.20;59.10;;;;;;5020429;28;19927;-89
2022/12/11 11:37:22;;;;;;;;;;;8.20;59.00;;;;;;5020165;28;19925;-90
2022/12/11 11:39:47;;;;;;;;;;;8.20;59.10;;;;;;5019589;28;20030;-87
2022/12/11 11:42:19;;;;;;;;;;;8.20;59.00;;;;;;5018234;28;20391;-88
2022/12/11 11:44:56;;;;;;;;;;;8.20;59.10;;;;;;5017355;28;20521;-89
2022/12/11 11:47:25;;;;;;;;;;;8.20;59.10;;;;;;5027674;28;19924;-88
2022/12/11 11:50:02;;;;;;;;;;;8.20;59.20;;;;;;5026908;28;19928;-89
2022/12/11 11:52:40;;;;;;;;;;;8.20;59.10;;;;;;5018826;28;19963;-88
2022/12/11 11:55:12;;;;;;;;;;;8.20;59.20;;;;;;5018652;28;19921;-88
2022/12/11 11:57:41;;;;;;;;;;;8.20;59.30;;;;;;5019037;28;19971;-88
2022/12/11 12:00:19;;;;;;;;;;;8.30;59.20;;;;;;5016063;28;19948;-89
2022/12/11 12:02:46;;;;;;;;;;;8.30;59.10;;;;;;5018047;28;19917;-90
2022/12/11 12:05:12;;;;;;;;;;;8.30;58.90;;;;;;5020857;28;19964;-88
2022/12/11 12:08:01;;;;;;;;;;;8.30;58.70;;;;;;5022058;28;19956;-88
2022/12/11 12:10:48;;;;;;;;;;;8.20;58.50;;;;;;5017461;28;19925;-89
2022/12/11 12:13:19;;;;;;;;;;;8.20;58.70;;;;;;5015660;28;19948;-89
2022/12/11 12:15:44;;;;;;;;;;;8.20;58.90;;;;;;5017468;28;20301;-89
2022/12/11 12:18:19;;;;;;;;;;;8.30;58.70;;;;;;5011386;28;19930;-89
2022/12/11 12:20:57;;;;;;;;;;;8.30;58.80;;;;;;5013893;28;19921;-88
2022/12/11 12:23:38;;;;;;;;;;;8.30;58.50;;;;;;5041526;28;19925;-89
2022/12/11 12:26:10;;;;;;;;;;;8.30;58.30;;;;;;5017064;28;19921;-87
2022/12/11 12:28:35;;;;;;;;;;;8.20;58.30;;;;;;5014508;28;19921;-89
2022/12/11 12:31:07;;;;;;;;;;;8.20;58.70;;;;;;5012972;28;19979;-88
2022/12/11 12:33:32;;;;;;;;;;;8.20;58.80;;;;;;5010246;28;19971;-88
2022/12/11 12:36:01;;;;;;;;;;;8.20;58.80;;;;;;5006312;28;19926;-89
2022/12/11 12:38:34;;;;;;;;;;;8.30;58.90;;;;;;5018992;28;19978;-88
2022/12/11 12:41:05;;;;;;;;;;;8.30;58.80;;;;;;5024426;28;19964;-88
2022/12/11 12:43:34;;;;;;;;;;;8.20;58.90;;;;;;5016012;28;20022;-88
2022/12/11 12:46:02;;;;;;;;;;;8.20;58.60;;;;;;5015254;28;19918;-88
2022/12/11 12:48:28;;;;;;;;;;;8.20;58.60;;;;;;5019564;28;20004;-88
2022/12/11 12:50:55;;;;;;;;;;;8.20;58.40;;;;;;5016339;28;20058;-88
2022/12/11 12:53:26;;;;;;;;;;;8.10;58.40;;;;;;5023833;28;19917;-89
2022/12/11 12:55:52;;;;;;;;;;;8.10;58.60;;;;;;5024048;28;20408;-90
2022/12/11 12:58:23;;;;;;;;;;;8.10;58.70;;;;;;5020050;28;19925;-88
2022/12/11 13:00:52;;;;;;;;;;;8.10;58.80;;;;;;5019774;28;19921;-90
2022/12/11 13:03:21;;;;;;;;;;;8.10;58.80;;;;;;5019341;28;19917;-90
2022/12/11 13:06:13;;;;;;;;;;;8.10;58.40;;;;;;5017257;28;19917;-89
2022/12/11 13:08:45;;;;;;;;;;;8.10;58.70;;;;;;5019207;28;19924;-89
2022/12/11 13:11:12;;;;;;;;;;;8.20;58.70;;;;;;5022917;28;19990;-89
2022/12/11 13:13:39;;;;;;;;;;;8.20;58.30;;;;;;5023958;28;19925;-88
2022/12/11 13:16:21;;;;;;;;;;;8.10;57.90;;;;;;5022037;28;19967;-88
2022/12/11 13:18:47;;;;;;;;;;;8.00;57.90;;;;;;5024833;28;19947;-88
2022/12/11 13:21:45;;;;;;;;;;;7.90;57.80;;;;;;5023309;28;19921;-89
2022/12/11 13:24:16;;;;;;;;;;;7.90;57.80;;;;;;5000335;28;19944;-87
2022/12/11 13:26:42;;;;;;;;;;;7.80;58.10;;;;;;5022608;28;20347;-88
2022/12/11 13:29:46;;;;;;;;;;;7.80;58.40;;;;;;5023514;28;20363;-89
2022/12/11 13:32:12;;;;;;;;;;;7.80;58.50;;;;;;4964887;28;19923;-89
2022/12/11 13:34:41;;;;;;;;;;;7.80;58.30;;;;;;4965038;28;20834;-88
2022/12/11 13:37:25;;;;;;;;;;;7.80;58.30;;;;;;4980161;28;19971;-89
2022/12/11 13:39:51;;;;;;;;;;;7.80;58.00;;;;;;5023686;28;19925;-89
2022/12/11 13:42:26;;;;;;;;;;;7.70;58.40;;;;;;5024433;28;19917;-88
2022/12/11 13:44:52;;;;;;;;;;;7.70;58.20;;;;;;5021672;28;19928;-90
2022/12/11 13:47:18;;;;;;;;;;;7.70;58.20;;;;;;5022655;28;19917;-88
2022/12/11 13:49:47;;;;;;;;;;;7.70;58.10;;;;;;5024609;28;19920;-87
2022/12/11 13:52:38;;;;;;;;;;;7.70;58.10;;;;;;5023927;28;19917;-88
2022/12/11 13:55:15;;;;;;;;;;;7.70;58.30;;;;;;5019776;28;20383;-87
2022/12/11 13:57:44;;;;;;;;;;;7.70;58.40;;;;;;5022940;28;19971;-89
2022/12/11 14:00:20;;;;;;;;;;;7.70;58.60;;;;;;5021532;28;19925;-88
2022/12/11 14:02:46;;;;;;;;;;;7.70;58.20;;;;;;5024348;28;19932;-88
2022/12/11 14:05:12;;;;;;;;;;;7.70;58.10;;;;;;5025127;28;19921;-87
2022/12/11 14:07:41;;;;;;;;;;;7.70;58.20;;;;;;5024229;28;19917;-88
2022/12/11 14:10:12;;;;;;;;;;;7.70;58.10;;;;;;5022418;28;20418;-87
2022/12/11 14:12:41;;;;;;;;;;;7.60;58.20;;;;;;5023920;28;20444;-88
2022/12/11 14:15:11;;;;;;;;;;;7.60;58.30;;;;;;5024416;28;19974;-89
2022/12/11 14:17:39;;;;;;;;;;;7.60;58.40;;;;;;5022780;28;19929;-88
2022/12/11 14:20:06;;;;;;;;;;;7.50;58.90;;;;;;5025229;28;19921;-90
2022/12/11 14:22:31;;;;;;;;;;;7.60;58.50;;;;;;5023792;28;19960;-89
2022/12/11 14:24:58;;;;;;;;;;;7.60;58.70;;;;;;5023481;28;19964;-89
2022/12/11 14:27:25;;;;;;;;;;;7.60;58.70;;;;;;5022797;28;20152;-87
2022/12/11 14:29:50;;;;;;;;;;;7.60;58.60;;;;;;5025161;28;19978;-88
2022/12/11 14:32:19;;;;;;;;;;;7.60;58.40;;;;;;5023260;28;20365;-88
2022/12/11 14:34:44;;;;;;;;;;;7.60;58.50;;;;;;5030160;28;19921;-89
2022/12/11 14:37:13;;;;;;;;;;;7.60;58.70;;;;;;5028740;28;19928;-88
2022/12/11 14:39:55;;;;;;;;;;;7.60;58.30;;;;;;5030607;28;20371;-88
2022/12/11 14:42:29;;;;;;;;;;;7.50;58.30;;;;;;5027246;28;19967;-88
2022/12/11 14:45:13;;;;;;;;;;;7.50;58.40;;;;;;5026993;28;20000;-89
2022/12/11 14:47:41;;;;;;;;;;;7.50;58.50;;;;;;5027296;28;20243;-91